Historyczne dane pomiarowe

Dodano dane terminowe – wersja testowa.

Dane z okresu 1951-2019

Wersja bazy: 1.34 [2019-03-16, lista zmian], aktualizacja planowana na 2019-04-15

Dane meteo z obszaru Polski uzyskane na podstawie danych udostępnionych przez Instytut Meteorologii i Gospodarki Wodnej – Państwowy Instytut Badawczy.

 

Wybierz Datę:    

       

TemperaturaWilgotnośćWiatrCiśnienieOpadyŚniegCzas trwania zjawisk
 Stacja t tx tn tng RH VA  wxwx mslp ppp RRR   cm mm wxwxwxwxwxwxwx
1979-02-15 0.7 4.7 -2.4 -7.7 86.5 5.6 7.1 0.4 0.0 0.0- 902.7 0.2 0.0 0.2 20 3.2 1.2- 1.3--- 6.0-
1979-02-14 -0.1 3.7 -3.7 -8.7 81.5 4.9 6.5 0.8 0.0 0.0- 895.6 0.0 0.0 0.0 21 2.7 2.1- 1.4--- 7.0-
1979-02-13 0.9 1.8 -0.5 -1.8 88.5 5.8 7.9 1.0 0.0 0.0- 892.0 0.1 0.1 0.0 23 2.8 0.0- 1.8-----
1979-02-12 -0.9 6.6 -5.8 -8.6 81.6 4.8 7.8 1.3 0.0 0.0- 898.5 0.3 0.3 0.0 30 2.9 1.4 1.1 4.2-----
1979-02-11 -8.2 -1.9-15.1-26.0 61.9 2.0 4.9 0.1 0.0 0.0- 906.9 0.2 0.0 0.2 30 2.5 2.2----- 8.0-
1979-02-10 -6.3 -3.1 -8.2-15.5 78.1 3.0 5.1 1.4 0.0 0.0- 901.5 0.0 0.0 0.0 31 2.6 0.6----- 5.0-
1979-02-09 -4.5 1.0 -8.0-17.0 61.9 2.6 4.3 1.8 0.0 0.0- 904.7 0.0 0.0 0.0 33 2.8 7.1-------
1979-02-08 -5.0 -0.7-12.3-22.0 70.3 3.0 7.1 1.8 0.0 0.0- 900.6 0.3 0.0 0.3 33 3.2 2.3- 3.7--- 3.0-
1979-02-07 -8.2 -3.9-12.6-23.0 74.4 2.4 3.5 0.3 0.0 0.0- 910.4 0.0 0.0 0.0 33 2.8 6.2- 2.3--- 11.0-
1979-02-06 -3.9 -1.1 -6.0 -6.5 83.8 3.9 7.6 0.9 0.0 0.0- 907.1 1.0 0.2 0.8 33 2.7 0.1 1.6 15.2- 0.5---
1979-02-05 -3.5 1.4 -9.2-18.3 79.1 3.8 6.0 0.3 0.0 0.0- 900.2 2.0 0.0 2.0 32 2.7 3.0- 5.4--- 8.0-
1979-02-04 -4.1 1.9 -9.3-20.2 70.4 3.1 1.9 1.8 0.0 0.0- 904.2 0.0 0.0 0.0 33 2.8 7.1----- 16.0-
1979-02-03 -2.9 5.8 -5.9-16.3 84.3 4.2 5.3 1.6 0.0 0.0- 902.8 0.0 0.0 0.0 37 2.3 2.7 3.2 2.3--- 8.0-
1979-02-02 -0.6 5.8 -8.9-18.0 74.3 4.4 7.3 1.6 0.0 0.0- 899.0 0.1 0.0 0.1 39 2.1 2.6 3.1---- 7.0-
1979-02-01 -4.6 -1.6 -7.1-12.9 81.1 3.5 5.5 2.4 0.0 0.0- 908.7 0.1 0.1 0.0 43 2.0 0.3- 3.6--- 5.0-
1979-01-31 -2.2 0.6 -3.7 -9.9 77.3 4.0 7.0 2.5 0.0 0.0- 904.6 3.4 0.0 3.4 39 2.1 1.9- 5.6-----
1979-01-30 -3.5 -0.7 -5.0 -7.3 83.6 3.9 7.8 2.5 0.0 0.0- 899.2 3.2 3.2 0.0 38 2.2 0.0- 11.3-----
1979-01-29 0.6 4.5 -0.7 -1.1 97.1 6.2 8.0 0.5 0.0 0.0- 899.6 16.8 1.4 15.4 23 3.0 0.0 9.3 8.3- 14.8---
1979-01-28 6.5 9.1 -0.3 -0.6 70.9 6.8 7.4 5.8 1.2 0.0- 895.9 1.4 0.2 1.2 32 4.1 0.2 14.4-- 2.3---
1979-01-27 -2.3 0.6 -8.2-17.0 86.5 4.5 7.3 0.9 0.0 0.0- 903.3 1.5 0.0 1.5 44 1.7 4.0 3.5-- 0.8---
1979-01-26 -5.0 1.8 -9.6-17.1 86.1 3.7 3.1 0.0 0.0 0.0- 902.7 0.0 0.0 0.0 46 2.1 5.3----- 13.0-
1979-01-25 -3.1 -0.3 -4.1 -4.9 95.1 4.6 8.0 0.0 0.0 0.0- 904.3 0.3 0.3 0.0 49 1.6 0.0 3.3 11.2- 13.8---
1979-01-24 -2.0 -0.1 -7.4-10.0 92.9 5.0 8.0 0.1 0.0 0.0- 905.1 13.9 3.2 10.7 40 1.8 0.0 4.0 14.3- 13.6---
1979-01-23 -5.1 -4.1 -6.7 -9.6 94.0 3.9 8.0 0.4 0.0 0.0- 912.0 0.0 0.0 0.0 46 1.9 0.0- 2.5- 12.0---
1979-01-22 -7.0 -2.3-12.5-17.5 88.0 3.3 5.3 0.0 0.0 0.0- 919.0 0.4 0.4 0.0 51 1.3 0.1- 1.1--- 3.7-
1979-01-21 -6.2 -4.4 -8.5-16.0 94.5 3.6 8.0 0.0 0.0 0.0- 921.2 8.4 8.4 0.0 36 1.7 0.0- 13.7- 23.8---
1979-01-20 -8.9 -3.6-13.6-26.7 90.1 2.9 3.4 0.0 0.0 0.0- 920.6 0.4 0.0 0.4 36 1.7 3.9--- 9.6- 5.3-
1979-01-19 -8.5 -5.6-10.2-25.7 90.1 2.9 7.0 0.1 0.0 0.0- 923.0 0.0 0.0 0.0 40 1.8 2.0--- 8.3- 1.3-
1979-01-18-11.0 -7.7-15.3-24.8 85.9 2.3 5.0 0.4 0.0 0.0- 922.3 1.0 0.8 0.2 42 1.7 3.0- 3.7--- 11.0-
1979-01-17-10.2 -5.0-12.7-22.4 81.8 2.3 2.8 0.1 0.0 0.0- 920.8 0.0 0.0 0.0 46 1.3 5.0----- 17.0-
1979-01-16 -5.9 -4.5 -7.2 -8.2 92.8 3.7 7.9 0.3 0.0 0.0- 917.2 0.8 0.8 0.0 55 1.1 0.0- 11.5- 6.8---
1979-01-15 -7.6 -7.0 -8.4 -8.6 89.5 3.1 8.0 1.3 0.0 0.0- 913.4 7.3 4.8 2.5 41 1.0 0.0- 24.0-----
1979-01-14 -6.6 -4.6 -7.9-14.0 86.5 3.2 7.8 1.4 0.0 0.0- 912.2 8.6 3.9 4.7 17- 0.0- 21.3-----
1979-01-13 -6.1 -1.8-10.5-21.4 76.1 3.0 4.4 0.9 0.0 0.0- 905.7 1.1 0.0 1.1 14 1.9 3.4- 6.4--- 10.0-
1979-01-12 -4.6 2.4 -9.0-20.5 80.5 3.6 4.0 0.9 0.0 0.0- 894.7 0.0 0.0 0.0 15 2.0 5.0- 1.4--- 6.0-
1979-01-11 -1.4 3.1 -9.2-18.8 75.9 4.2 6.9 3.8 0.0 0.0- 890.6 2.8 1.0 1.8 17 2.1 0.5- 11.6--- 6.0-
1979-01-10 -3.2 -1.4 -5.3 -6.9 88.8 4.3 7.8 0.6 0.0 0.0- 903.6 3.8 3.4 0.4 11 3.4 0.0- 19.3-----
1979-01-09 -6.0 -1.8-11.1-17.0 80.4 3.2 5.9 0.5 0.0 0.0- 913.9 0.2 0.0 0.2 10 1.9 0.0- 0.1--- 8.0-
1979-01-08 -7.2 -1.3-12.5-18.6 78.1 2.8 4.8 0.5 0.0 0.0- 923.4 0.0 0.0 0.0 10 1.8 2.3----- 13.0-
1979-01-07-11.6 -4.0-15.8-23.3 75.4 1.9 0.4 0.4 0.0 0.0- 928.9 0.0 0.0 0.0 10 2.0 5.7----- 16.0-
1979-01-06-12.7 -8.4-16.3-24.1 79.6 1.9 3.4 1.0 0.0 0.0- 922.4 0.0 0.0 0.0 11 2.0 2.8- 0.6--- 6.8-
1979-01-05-12.4-10.3-16.2-23.3 72.3 1.7 6.5 2.9 0.0 0.0- 912.1 0.3 0.2 0.1 10 2.0 0.0- 18.1-----
1979-01-04-13.3-12.2-15.1-20.9 66.0 1.5 5.1 2.8 0.0 0.0- 903.4 0.8 0.2 0.6 9 2.0 4.3- 6.3-----
1979-01-03-13.7-12.4-15.6-21.6 73.4 1.6 6.4 2.5 0.0 0.0- 906.5 0.2 0.0 0.2 9 2.4 0.0- 4.8-----
1979-01-02-14.1-12.4-21.4-21.3 72.4 1.5 7.3 2.5 0.0 0.0- 905.9 0.4 0.2 0.2 8 2.8 0.0- 15.8-----
1979-01-01 -7.5 7.3-20.3-19.5 68.6 3.2 7.0 3.3 0.0 0.0- 892.6 2.2 2.2 0.0 6 3.7 0.0- 5.7- 0.8---
1978-12-31 5.8 8.1 1.7 -1.1 63.0 5.7 6.4 3.8 0.0 0.0- 892.0 0.1 0.1 0.0 10 3.4 0.0 2.0------
1978-12-30 3.4 7.7 0.4 0.8 87.1 6.8 7.4 1.5 0.0 0.0- 895.6 1.9 1.9 0.0 12 3.5 0.0 7.2-- 1.1---
1978-12-29 6.3 9.4 3.8 0.4 69.8 6.7 7.0 4.1 0.0 0.0- 897.7 0.4 0.1 0.3 20 2.3 0.2 5.0------
1978-12-28 2.5 8.0 -2.3 -7.1 84.3 6.1 5.4 2.0 0.0 0.0- 902.7 1.1 0.8 0.3 20 2.6 0.2 3.2-- 1.6- 3.2-
1978-12-27 2.8 5.5 1.7 -3.4 85.1 6.4 7.0 2.5 0.0 0.0- 908.3 2.3 2.3 0.0 25 2.6 0.0 6.9- 1.4-- 2.0-
1978-12-26 2.4 3.7 0.0 -4.8 76.0 5.5 7.1 2.4 0.0 0.0- 912.1 0.4 0.2 0.2 26 2.5 0.9 2.5 1.8-----
1978-12-25 -2.4 1.3 -6.4-17.5 91.6 4.8 5.5 0.5 0.0 0.0- 909.0 0.0 0.0 0.0 27 1.9 0.0- 1.4- 2.8- 6.8-
1978-12-24 -3.7 1.9 -6.5-13.8 90.3 4.2 4.3 0.5 0.0 0.0- 910.2 0.0 0.0 0.0 27 2.0 3.0--- 1.5- 11.8-
1978-12-23 -2.9 4.1 -5.9-15.4 89.0 4.4 5.4 0.1 0.0 0.0- 912.5 0.0 0.0 0.0 27 1.9 0.1----- 15.0-
1978-12-22 -2.8 3.9 -6.6 -8.6 86.4 4.2 6.6 1.1 0.0 0.0- 919.5 0.0 0.0 0.0 28 2.1 0.0--- 7.7---
1978-12-21 -1.6 -0.4 -2.5 -2.6 95.3 5.2 8.0 0.8 0.0 0.0- 918.7 0.0 0.0 0.0 28 2.1 0.0- 3.3- 9.0---
1978-12-20 -3.2 -0.7 -8.8-10.5 89.3 4.3 7.4 0.0 0.0 0.0- 912.7 0.7 0.0 0.7 29 1.5 0.0- 1.2--- 8.0-
1978-12-19-11.7 -5.8-17.6-29.5 81.6 2.2 3.3 0.0 0.0 0.0- 921.0 0.0 0.0 0.0 31 1.4 4.5----- 15.0-
1978-12-18-11.9 -7.4-16.2-28.5 82.0 2.1 3.1 0.6 0.0 0.0- 920.8 0.0 0.0 0.0 32 1.4 5.5- 6.7--- 8.0-
791.9 ms

 

Źródłem pochodzenia danych jest Instytut Meteorologii i Gospodarki Wodnej – Państwowy Instytut Badawczy. Dane Instytutu Meteorologii i Gospodarki Wodnej – Państwowego Instytutu Badawczego zostały przetworzone.

Dane źródłowe można odnaleźć na stronie https://dane.imgw.pl